Time;durP1;ratioP1;P1;durP2;ratioP2;P2;SDS_P1;SDS_P2;PMS_P1;PMS_P2;Temp;Humidity;BMP_temperature;BMP_pressure;BME280_temperature;BME280_humidity;BME280_pressure;Samples;Min_cycle;Max_cycle;Signal;HPM_P1;HPM_P2
2022/08/12 00:42:53;;;;;;;5.55;2.60;;;18.70;99.90;;;-141.84;43.77;21126.97;4998171;28;20314;-78
2022/08/12 00:45:21;;;;;;;2.83;2.53;;;18.70;99.90;;;-141.84;43.74;21185.91;4995124;28;20208;-76
2022/08/12 00:47:53;;;;;;;2.60;2.40;;;18.60;99.90;;;-141.84;43.98;21192.03;4994444;28;20230;-77
2022/08/12 00:50:25;;;;;;;2.75;2.47;;;18.60;99.90;;;-141.84;43.61;21187.97;5000081;28;20701;-77
2022/08/12 00:52:54;;;;;;;3.03;2.70;;;18.60;99.90;;;-141.84;43.79;21141.19;5013624;28;20309;-76
2022/08/12 00:55:23;;;;;;;4.07;2.80;;;18.60;99.90;;;-141.84;44.21;21147.28;5013702;28;20313;-77
2022/08/12 00:57:51;;;;;;;3.00;2.60;;;18.60;99.90;;;-141.84;44.04;21122.91;5013593;28;20298;-77
2022/08/12 01:00:24;;;;;;;3.30;2.70;;;18.50;99.90;;;-141.84;44.14;21153.41;5013915;28;20306;-78
2022/08/12 01:02:57;;;;;;;6.15;2.67;;;18.50;99.90;;;-141.84;44.23;21163.56;5033678;28;20249;-79
2022/08/12 01:11:31;;;;;;;3.30;2.67;;;18.50;99.90;;;-141.84;44.36;21110.69;4971776;28;20232;-76
2022/08/12 01:14:02;;;;;;;4.75;2.67;;;18.40;99.90;;;-141.84;44.45;21106.63;5027418;28;20230;-77
2022/08/12 01:16:30;;;;;;;6.45;2.88;;;18.40;99.90;;;-141.84;44.54;21072.06;5033061;28;20313;-77
2022/08/12 01:19:00;;;;;;;2.60;2.40;;;18.40;99.90;;;-141.84;44.96;21122.91;5032653;28;20760;-76
2022/08/12 01:22:19;;;;;;;3.20;2.80;;;18.40;99.90;;;-141.84;45.12;21092.41;5017920;28;20305;-76
2022/08/12 01:24:55;;;;;;;3.38;2.83;;;18.30;99.90;;;-141.84;44.59;21116.78;5013040;28;20227;-77
2022/08/12 01:27:26;;;;;;;4.40;2.78;;;18.30;99.90;;;-141.84;44.28;21114.75;5013250;28;20278;-78
2022/08/12 01:29:57;;;;;;;2.88;2.58;;;18.30;99.90;;;-141.84;44.59;21110.69;4993586;28;20211;-76
2022/08/12 01:32:30;;;;;;;4.82;3.03;;;18.30;99.90;;;-141.84;44.95;21104.59;4993320;28;20258;-77
2022/08/12 01:35:06;;;;;;;3.22;2.50;;;18.30;99.90;;;-141.84;45.08;21074.09;4993337;28;20234;-78
2022/08/12 01:37:45;;;;;;;2.95;2.72;;;18.20;99.90;;;-141.84;44.91;21090.38;4993285;28;20310;-76
2022/08/12 01:40:16;;;;;;;4.20;2.95;;;18.20;99.90;;;-141.84;45.00;21096.47;4993344;28;20222;-77
2022/08/12 01:43:13;;;;;;;2.95;2.63;;;18.20;99.90;;;-141.84;45.14;21055.81;4992365;28;20249;-77
2022/08/12 01:45:52;;;;;;;4.78;2.88;;;18.10;99.90;;;-141.84;45.21;21104.59;4993430;28;20188;-77
2022/08/12 01:48:42;;;;;;;5.32;2.75;;;18.10;99.90;;;-141.84;45.10;21076.13;4993763;28;20188;-77
2022/08/12 01:51:27;;;;;;;2.80;2.50;;;18.10;99.90;;;-141.84;45.31;21068.00;5012816;28;20306;-75
2022/08/12 01:54:18;;;;;;;3.25;2.60;;;18.10;99.90;;;-141.84;45.45;21098.50;5012747;28;20625;-78
2022/08/12 01:56:56;;;;;;;4.82;2.50;;;18.10;99.90;;;-141.84;45.64;21017.19;5012253;28;20237;-77
2022/08/12 01:59:48;;;;;;;2.70;2.50;;;18.00;99.90;;;-141.84;45.45;21045.63;5012228;28;20232;-77
2022/08/12 02:02:25;;;;;;;2.60;2.40;;;18.00;99.90;;;-141.84;45.84;21025.31;5012393;28;20230;-77
2022/08/12 02:11:25;;;;;;;5.75;2.78;;;18.00;99.90;;;-141.84;45.67;21068.00;5011555;28;20702;-64
2022/08/12 02:14:24;;;;;;;4.28;2.35;;;17.90;99.90;;;-141.84;45.72;21027.34;5012123;28;20942;-65
2022/08/12 02:17:32;;;;;;;3.35;2.53;;;17.90;99.90;;;-141.84;45.45;21078.16;5011833;28;20670;-65
2022/08/12 02:20:32;;;;;;;2.42;2.22;;;17.90;99.90;;;-141.84;45.38;21015.16;5011327;28;20245;-65
2022/08/12 02:23:25;;;;;;;2.55;2.33;;;17.90;99.90;;;-141.84;45.36;21015.16;5011732;28;20226;-65
2022/08/12 02:26:01;;;;;;;3.00;2.20;;;17.80;99.90;;;-141.84;45.71;20992.78;5011363;28;20634;-64
2022/08/12 02:28:30;;;;;;;2.70;2.40;;;17.80;99.90;;;-141.84;45.41;21051.75;5011340;28;20790;-65
2022/08/12 02:31:05;;;;;;;2.78;2.47;;;17.80;99.90;;;-141.84;45.41;21041.56;5011583;28;20302;-64
2022/08/12 02:33:36;;;;;;;2.47;2.08;;;17.80;99.90;;;-141.84;45.29;21023.28;5011680;28;20190;-63
2022/08/12 02:36:06;;;;;;;2.20;2.00;;;17.90;99.90;;;-141.84;45.57;21027.34;5012103;28;20316;-64
2022/08/12 02:38:36;;;;;;;4.10;2.50;;;17.80;99.90;;;-141.84;45.57;21027.34;5011284;28;20230;-63
2022/08/12 02:41:07;;;;;;;3.53;2.70;;;17.80;99.90;;;-141.84;46.01;21029.38;5011217;28;20309;-64
2022/08/12 02:43:46;;;;;;;3.05;2.05;;;17.80;99.90;;;-141.84;46.32;20974.50;5011630;28;20305;-76
2022/08/12 02:46:23;;;;;;;2.80;2.13;;;17.70;99.90;;;-141.84;46.14;20968.38;5011407;28;20219;-77
2022/08/12 02:48:57;;;;;;;2.47;2.28;;;17.60;99.90;;;-141.84;46.08;20988.72;5011504;28;20301;-76
2022/08/12 02:51:32;;;;;;;3.15;2.35;;;17.60;99.90;;;-141.84;46.07;21004.97;5026431;28;20262;-77
2022/08/12 02:54:03;;;;;;;3.78;2.50;;;17.60;99.90;;;-141.84;46.40;20970.41;5011103;28;20313;-78
2022/08/12 02:56:39;;;;;;;3.85;2.38;;;17.60;99.90;;;-141.84;46.40;21004.97;5028266;28;20225;-76
2022/08/12 02:59:12;;;;;;;3.47;2.47;;;17.50;99.90;;;-141.84;46.57;20972.47;5030710;28;20321;-77
2022/08/12 03:01:48;;;;;;;3.38;2.40;;;17.50;99.90;;;-141.84;46.63;20941.97;5031153;28;20237;-77
2022/08/12 03:04:26;;;;;;;3.08;2.42;;;17.40;99.90;;;-141.84;46.76;20994.81;5030816;28;20221;-76
2022/08/12 03:07:09;;;;;;;2.60;2.40;;;17.40;99.90;;;-141.84;46.70;20937.91;5030961;28;20230;-77
2022/08/12 03:09:46;;;;;;;3.53;2.05;;;17.40;99.90;;;-141.84;46.41;20962.28;5031114;28;20293;-76
2022/08/12 03:12:37;;;;;;;4.28;2.42;;;17.40;99.90;;;-141.84;46.58;20941.97;5030735;28;20626;-77
2022/08/12 03:15:19;;;;;;;2.40;2.20;;;17.40;99.90;;;-141.84;46.74;20919.59;5031607;28;20630;-78
2022/08/12 03:17:56;;;;;;;3.90;2.20;;;17.40;99.90;;;-141.84;46.46;20982.63;5030676;28;20234;-77
2022/08/12 03:20:45;;;;;;;2.53;2.33;;;17.40;99.90;;;-141.84;46.77;20950.09;5021329;28;20226;-77
2022/08/12 03:23:16;;;;;;;5.32;2.40;;;17.40;99.90;;;-141.84;47.00;20913.50;4996613;28;20810;-75
2022/08/12 03:26:00;;;;;;;5.00;2.83;;;17.30;99.90;;;-141.84;47.34;20917.56;4991251;28;20230;-76
2022/08/12 03:28:50;;;;;;;2.42;2.20;;;17.30;99.90;;;-141.84;47.29;20909.44;4991125;28;20223;-76
2022/08/12 03:31:22;;;;;;;2.55;2.30;;;17.20;99.90;;;-141.84;47.27;20915.53;4991289;28;20325;-75
2022/08/12 03:33:53;;;;;;;3.45;2.47;;;17.20;99.90;;;-141.84;47.76;20905.38;4991252;28;20222;-76
2022/08/12 03:36:33;;;;;;;2.50;2.30;;;17.20;99.90;;;-141.84;47.99;20941.97;4991226;28;20195;-77
2022/08/12 03:39:26;;;;;;;5.18;2.75;;;17.10;99.90;;;-141.84;47.74;20878.94;4991727;28;20694;-75
2022/08/12 03:42:34;;;;;;;3.90;2.88;;;17.10;99.90;;;-141.84;47.75;20885.03;4991305;28;20226;-76
2022/08/12 04:02:15;;;;;;;2.70;2.50;;;17.00;99.90;;;-141.84;47.76;20883.00;5030127;28;20235;-79
2022/08/12 04:04:46;;;;;;;3.28;2.70;;;17.00;99.90;;;-141.84;47.87;20883.00;5031132;28;20771;-78
2022/08/12 04:07:18;;;;;;;3.38;2.47;;;17.00;99.90;;;-141.84;48.24;20856.56;5034341;28;20225;-77
2022/08/12 04:09:47;;;;;;;3.28;2.50;;;16.90;99.90;;;-141.84;48.44;20822.03;5034542;28;20292;-75
2022/08/12 04:15:03;;;;;;;4.63;2.70;;;16.90;99.90;;;-141.84;48.59;20860.66;5034519;28;20685;-77
2022/08/12 04:17:33;;;;;;;3.85;2.63;;;16.90;99.90;;;-141.84;48.32;20864.72;5033810;28;20731;-78
2022/08/12 04:20:02;;;;;;;3.78;2.85;;;16.90;99.90;;;-141.84;48.27;20858.59;5033686;28;20312;-77
2022/08/12 04:22:32;;;;;;;3.97;2.70;;;16.90;99.90;;;-141.84;48.08;20895.19;5034086;28;20256;-78
2022/08/12 04:25:00;;;;;;;4.55;2.78;;;17.00;99.90;;;-141.84;47.93;20891.13;5034711;28;20301;-78
2022/08/12 04:27:30;;;;;;;3.40;2.90;;;17.00;99.90;;;-141.84;48.15;20850.47;5034001;28;20202;-76
2022/08/12 04:30:00;;;;;;;3.65;2.95;;;17.00;99.90;;;-141.84;48.33;20842.34;5034562;28;20292;-76
2022/08/12 04:32:49;;;;;;;4.40;2.65;;;17.00;99.90;;;-141.84;48.43;20887.06;5033815;28;20233;-77
2022/08/12 04:35:18;;;;;;;3.30;3.00;;;17.00;99.90;;;-141.84;48.08;20891.13;5033525;28;20226;-77
2022/08/12 04:37:53;;;;;;;5.63;3.05;;;17.10;99.90;;;-141.84;48.15;20933.81;5033522;28;20222;-77
2022/08/12 04:40:31;;;;;;;3.42;2.72;;;17.10;99.90;;;-141.84;48.17;20915.53;5033563;28;20629;-65
2022/08/12 04:43:00;;;;;;;4.30;2.85;;;17.10;99.90;;;-141.84;48.15;20907.41;5033231;28;20309;-64
2022/08/12 04:45:31;;;;;;;22.05;5.53;;;17.20;99.90;;;-141.84;48.05;20891.13;5034132;28;20202;-64
2022/08/12 04:48:00;;;;;;;15.88;5.10;;;17.20;99.90;;;-141.84;47.69;20903.34;5034621;28;20274;-64
2022/08/12 04:50:30;;;;;;;9.35;3.70;;;17.30;99.90;;;-141.84;47.79;20927.72;5034023;28;20226;-64
2022/08/12 04:53:08;;;;;;;9.13;3.97;;;17.30;99.90;;;-141.84;47.54;20923.66;5034094;28;20229;-64
2022/08/12 04:55:39;;;;;;;4.65;3.10;;;17.40;99.90;;;-141.84;46.97;20966.34;5033885;28;20348;-65
2022/08/12 04:58:08;;;;;;;6.30;3.13;;;17.50;99.90;;;-141.84;47.02;20990.75;5033605;28;20225;-64
2022/08/12 05:00:37;;;;;;;5.50;2.67;;;17.50;99.90;;;-141.84;46.88;20982.63;5033963;28;20212;-66
2022/08/12 05:03:07;;;;;;;3.75;2.85;;;17.60;99.90;;;-141.84;47.03;20994.81;5034345;28;20285;-64
2022/08/12 05:05:39;;;;;;;3.63;3.05;;;17.70;99.90;;;-141.84;46.50;21004.97;5033847;28;20236;-65
2022/08/12 05:08:14;;;;;;;4.50;3.50;;;17.90;99.90;;;-141.84;46.08;21068.00;5033814;28;20690;-65
2022/08/12 05:10:45;;;;;;;4.25;3.00;;;18.00;99.90;;;-141.84;45.12;21159.50;5033991;28;20229;-65
2022/08/12 05:13:17;;;;;;;4.18;3.10;;;18.20;99.90;;;-141.84;43.86;21279.44;5033510;28;20218;-64
2022/08/12 05:15:45;;;;;;;3.47;3.00;;;18.60;99.90;;;-141.84;42.64;21399.41;5033204;28;20662;-64
2022/08/12 05:18:31;;;;;;;3.67;2.97;;;18.90;99.90;;;-141.84;41.88;21436.00;5033355;28;20206;-65
2022/08/12 05:20:59;;;;;;;4.97;2.95;;;19.40;99.90;;;-141.84;42.27;21395.34;5034381;28;20210;-65
2022/08/12 05:23:31;;;;;;;5.10;3.10;;;19.60;99.90;;;-141.84;42.01;21403.47;5033515;28;20222;-65
2022/08/12 05:26:00;;;;;;;4.38;3.08;;;19.70;99.90;;;-141.84;42.29;21391.28;5033555;28;20252;-64
2022/08/12 05:28:30;;;;;;;4.30;3.50;;;19.90;99.90;;;-141.84;41.99;21399.41;5033221;28;20768;-64
2022/08/12 05:31:00;;;;;;;8.32;3.17;;;19.90;99.90;;;-141.84;42.37;21399.41;5033350;28;20222;-64
2022/08/12 05:33:36;;;;;;;5.78;2.92;;;19.90;99.90;;;-141.84;42.65;21405.50;5033485;28;20244;-67
2022/08/12 05:36:07;;;;;;;4.07;3.17;;;19.90;99.90;;;-141.84;42.28;21458.38;5033901;28;20763;-66
2022/08/12 05:41:24;;;;;;;7.35;3.10;;;20.20;99.90;;;-141.84;42.01;21503.09;5033427;28;20228;-64
2022/08/12 05:43:55;;;;;;;4.07;3.17;;;20.40;99.90;;;-141.84;41.80;21501.06;5033319;28;20228;-65
2022/08/12 05:46:25;;;;;;;5.00;3.15;;;20.50;99.90;;;-141.84;41.60;21519.34;5033156;28;20230;-65
2022/08/12 05:48:55;;;;;;;5.80;3.05;;;20.60;99.90;;;-141.84;41.67;21517.31;5033049;28;20244;-66
2022/08/12 05:51:25;;;;;;;6.55;3.42;;;20.70;99.90;;;-141.84;41.09;21541.72;5033469;28;20202;-64
2022/08/12 05:54:11;;;;;;;5.55;3.30;;;20.80;99.90;;;-141.84;41.01;21621.03;5033386;28;20198;-64
2022/08/12 05:56:40;;;;;;;4.50;2.70;;;20.90;99.90;;;-141.84;40.87;21598.66;5032757;28;20230;-65
2022/08/12 05:59:11;;;;;;;3.33;2.70;;;21.00;99.90;;;-141.84;41.02;21623.06;5032909;28;20230;-65
2022/08/12 06:01:41;;;;;;;4.90;2.92;;;21.10;99.90;;;-141.84;40.86;21639.31;5033012;28;20265;-65
2022/08/12 06:04:31;;;;;;;6.28;2.60;;;21.20;99.90;;;-141.84;41.10;21641.34;5032697;28;20225;-65
2022/08/12 06:07:00;;;;;;;4.38;2.80;;;21.20;99.90;;;-141.84;40.57;21659.66;5032961;28;20308;-66
2022/08/12 06:09:30;;;;;;;3.40;2.88;;;21.30;99.90;;;-141.84;40.39;21692.19;5032855;28;20198;-65
2022/08/12 06:11:58;;;;;;;5.20;2.63;;;21.40;99.90;;;-141.84;40.47;21690.16;5033074;28;20198;-66
2022/08/12 06:14:35;;;;;;;6.32;2.80;;;21.50;99.90;;;-141.84;40.39;21694.22;5032736;28;20241;-65
2022/08/12 06:17:08;;;;;;;3.20;2.30;;;21.50;99.90;;;-141.84;40.19;21730.81;5032738;28;20225;-63
2022/08/12 06:19:36;;;;;;;2.92;2.40;;;21.60;99.90;;;-141.84;40.31;21751.16;5032208;28;20265;-66
2022/08/12 06:22:25;;;;;;;4.20;2.40;;;21.70;99.90;;;-141.84;39.90;21743.03;5032545;28;20222;-65
2022/08/12 06:24:55;;;;;;;4.75;2.50;;;21.80;99.90;;;-141.84;40.22;21779.63;5032280;28;20226;-64
2022/08/12 06:27:23;;;;;;;5.20;3.08;;;21.90;99.90;;;-141.84;40.07;21765.38;5032393;28;20194;-65
2022/08/12 06:29:51;;;;;;;5.15;2.70;;;22.00;99.90;;;-141.84;39.28;21785.72;5032090;28;20637;-66
2022/08/12 06:32:38;;;;;;;5.60;2.85;;;22.10;99.90;;;-141.84;39.04;21806.06;5032369;28;20393;-65
2022/08/12 06:35:26;;;;;;;4.95;2.70;;;22.10;99.90;;;-141.84;39.66;21840.63;5031948;28;20230;-65
2022/08/12 06:38:18;;;;;;;4.22;2.80;;;22.20;99.90;;;-141.84;39.18;21836.56;5032142;28;20265;-66
2022/08/12 06:43:39;;;;;;;9.68;2.80;;;22.20;99.90;;;-141.84;39.18;21812.16;5031743;28;20304;-65
2022/08/12 06:46:29;;;;;;;4.75;2.60;;;22.20;99.90;;;-141.84;39.92;21828.44;5032069;28;20240;-66
2022/08/12 06:48:59;;;;;;;7.40;2.78;;;22.20;99.90;;;-141.84;39.83;21802.00;5031816;28;20321;-65
2022/08/12 06:51:30;;;;;;;6.10;3.28;;;22.20;99.90;;;-141.84;39.91;21816.22;5030623;28;20302;-65
2022/08/12 06:54:01;;;;;;;4.70;2.83;;;22.20;99.90;;;-141.84;40.09;21850.78;5031294;28;20190;-66
2022/08/12 06:56:30;;;;;;;4.82;2.95;;;22.20;99.90;;;-141.84;40.19;21889.44;5030714;28;20222;-65
2022/08/12 06:59:20;;;;;;;7.40;2.92;;;22.20;99.90;;;-141.84;39.79;21830.47;5030703;28;20229;-67
2022/08/12 07:01:49;;;;;;;4.07;2.50;;;22.30;99.90;;;-141.84;40.00;21901.63;5030951;28;20664;-65
2022/08/12 07:04:20;;;;;;;6.78;2.92;;;22.30;99.90;;;-141.84;40.32;21869.09;5030681;28;20221;-65
2022/08/12 07:07:07;;;;;;;5.32;2.63;;;22.30;99.90;;;-141.84;39.77;21850.78;5030752;28;20650;-66
2022/08/12 07:09:36;;;;;;;4.15;2.58;;;22.30;99.90;;;-141.84;40.25;21873.16;5030737;28;20220;-65
2022/08/12 07:12:26;;;;;;;3.35;2.28;;;22.40;99.90;;;-141.84;39.28;21869.09;5030999;28;20693;-65
2022/08/12 07:14:56;;;;;;;4.65;2.47;;;22.40;99.90;;;-141.84;39.29;21865.03;5030677;28;20214;-65
2022/08/12 07:17:25;;;;;;;2.58;2.20;;;22.40;99.90;;;-141.84;39.66;21858.94;5030558;28;20725;-66
2022/08/12 07:19:53;;;;;;;3.70;2.10;;;22.50;99.90;;;-141.84;38.96;21899.59;5030124;28;20261;-64
2022/08/12 07:22:27;;;;;;;5.93;2.28;;;22.50;99.90;;;-141.84;39.42;21911.78;5030562;28;20245;-66
2022/08/12 07:27:41;;;;;;;4.38;2.10;;;22.50;99.90;;;-141.84;39.42;21830.47;5030595;28;20685;-65
2022/08/12 07:30:11;;;;;;;2.50;2.17;;;22.50;99.90;;;-141.84;39.66;21844.69;5031783;28;20194;-64
2022/08/12 07:32:39;;;;;;;2.92;2.30;;;22.50;99.90;;;-141.84;39.44;21909.75;5030872;28;20313;-64
2022/08/12 07:35:08;;;;;;;3.78;2.00;;;22.50;99.90;;;-141.84;39.11;21899.59;5030996;28;20307;-65
2022/08/12 07:37:41;;;;;;;2.92;2.05;;;22.60;99.90;;;-141.84;39.36;21899.59;5031124;28;20230;-66
2022/08/12 07:40:11;;;;;;;6.57;2.22;;;22.60;99.90;;;-141.84;39.07;21950.44;5028909;28;20230;-64
2022/08/12 07:42:43;;;;;;;4.38;2.33;;;22.70;99.90;;;-141.84;39.06;21970.78;5015420;28;20205;-68
2022/08/12 07:45:13;;;;;;;9.65;2.65;;;22.70;99.90;;;-141.84;38.93;22013.47;5031445;28;20277;-66
2022/08/12 07:47:42;;;;;;;5.13;1.95;;;22.80;99.90;;;-141.84;38.31;22025.66;5031069;28;20226;-66
2022/08/12 07:50:12;;;;;;;4.00;2.00;;;22.90;99.90;;;-141.84;38.22;22029.75;5026164;28;20218;-64
2022/08/12 07:52:44;;;;;;;9.05;2.08;;;22.90;99.90;;;-141.84;38.16;22017.53;5011075;28;20309;-65
2022/08/12 07:55:13;;;;;;;3.05;1.90;;;23.00;99.90;;;-141.84;38.07;22013.47;5011216;28;20400;-64
2022/08/12 07:57:58;;;;;;;3.83;1.98;;;23.00;99.90;;;-141.84;38.13;22013.47;5011125;28;20238;-63
2022/08/12 08:00:28;;;;;;;2.10;1.80;;;23.00;99.90;;;-141.84;37.73;22066.34;5011374;28;20250;-64
2022/08/12 08:02:57;;;;;;;1.83;1.60;;;23.00;99.90;;;-141.84;37.35;22064.31;5011339;28;20206;-62
2022/08/12 08:05:29;;;;;;;3.85;1.77;;;23.10;99.90;;;-141.84;37.37;22127.34;4994551;28;20524;-63
2022/08/12 08:08:01;;;;;;;7.05;1.55;;;23.30;99.90;;;-141.84;36.19;22135.47;4991273;28;20245;-62
2022/08/12 08:10:30;;;;;;;2.92;1.50;;;23.40;99.90;;;-141.84;35.76;22131.41;4991039;28;20585;-62
2022/08/12 08:13:03;;;;;;;4.50;1.90;;;23.50;99.90;;;-141.84;35.76;22192.44;4991011;28;20711;-65
2022/08/12 08:15:33;;;;;;;4.05;1.35;;;23.60;99.90;;;-141.84;35.46;22159.88;4991282;28;20595;-66
2022/08/12 08:18:22;;;;;;;3.47;1.42;;;23.60;99.90;;;-141.84;35.58;22210.72;4991502;28;20211;-63
2022/08/12 08:20:55;;;;;;;2.78;1.40;;;23.70;99.90;;;-141.84;35.53;22220.91;5001499;28;20325;-62
2022/08/12 08:24:13;;;;;;;2.30;1.50;;;23.80;99.90;;;-141.84;35.11;22237.16;4994813;28;20242;-62
2022/08/12 08:26:26;;;;;;;2.65;1.35;;;23.80;99.90;;;-141.84;35.50;22233.09;4990706;28;20234;-62
2022/08/12 08:28:55;;;;;;;1.88;1.50;;;23.80;99.90;;;-141.84;35.37;22259.53;4990778;28;20727;-63
2022/08/12 08:31:23;;;;;;;1.63;1.40;;;23.90;99.90;;;-141.84;34.93;22326.66;4990775;28;20270;-62
2022/08/12 08:33:53;;;;;;;1.85;1.30;;;24.10;99.90;;;-141.84;34.34;22285.97;4990789;28;20718;-64
2022/08/12 08:36:42;;;;;;;2.88;1.30;;;24.20;99.60;;;-141.84;33.93;22349.00;4991039;28;20218;-62
2022/08/12 08:39:16;;;;;;;2.58;1.23;;;24.30;98.80;;;-141.84;33.69;22355.13;4991657;28;20202;-63
2022/08/12 08:44:48;;;;;;;1.80;1.40;;;24.30;98.80;;;-141.84;34.22;22379.53;4990964;28;20259;-65
2022/08/12 08:47:24;;;;;;;2.65;1.48;;;24.40;99.00;;;-141.84;34.17;22379.53;4990658;28;20605;-67
2022/08/12 08:49:56;;;;;;;2.25;1.20;;;24.50;99.10;;;-141.84;33.83;22412.06;4992925;28;20227;-62
2022/08/12 08:52:24;;;;;;;1.38;1.25;;;24.60;99.00;;;-141.84;34.00;22403.94;5013429;28;20602;-60
2022/08/12 08:55:14;;;;;;;1.98;1.27;;;24.60;98.90;;;-141.84;34.32;22414.09;5013919;28;20223;-63
2022/08/12 08:57:51;;;;;;;2.83;1.50;;;24.60;99.10;;;-141.84;33.79;22432.41;5013832;28;20226;-65
2022/08/12 09:00:22;;;;;;;1.50;1.38;;;24.60;98.80;;;-141.84;33.74;22430.38;5014248;28;20733;-66
2022/08/12 09:02:50;;;;;;;1.85;1.52;;;24.60;98.80;;;-141.84;34.10;22458.84;5013687;28;20230;-64
2022/08/12 09:05:27;;;;;;;3.00;1.80;;;24.60;98.80;;;-141.84;34.39;22452.72;5013672;28;20265;-65
2022/08/12 09:08:18;;;;;;;4.53;1.90;;;24.70;99.10;;;-141.84;34.37;22469.00;5013676;28;20238;-64
2022/08/12 09:10:57;;;;;;;3.80;1.73;;;24.80;99.00;;;-141.84;34.36;22471.03;5013641;28;20253;-64
2022/08/12 09:13:44;;;;;;;4.65;1.83;;;24.80;99.10;;;-141.84;34.34;22469.00;5013576;28;20246;-60
2022/08/12 09:16:33;;;;;;;1.80;1.70;;;24.80;99.20;;;-141.84;33.95;22485.28;5013706;28;20230;-60
2022/08/12 09:19:12;;;;;;;2.78;1.60;;;24.90;99.10;;;-141.84;34.09;22564.59;5013109;28;20215;-61
2022/08/12 09:21:56;;;;;;;1.88;1.50;;;25.00;99.20;;;-141.84;34.09;22556.47;5013444;28;20233;-59
2022/08/12 09:24:27;;;;;;;3.28;1.55;;;25.10;99.00;;;-141.84;34.22;22568.66;5013507;28;20274;-61
2022/08/12 09:26:57;;;;;;;4.10;1.80;;;25.10;99.00;;;-141.84;33.96;22601.19;5013709;28;20538;-60
2022/08/12 09:29:45;;;;;;;2.25;1.60;;;25.20;99.30;;;-141.84;34.26;22580.84;5013398;28;20229;-61
2022/08/12 09:32:36;;;;;;;3.85;1.80;;;25.20;99.60;;;-141.84;33.89;22621.53;5013262;28;20226;-65
2022/08/12 09:35:30;;;;;;;4.90;1.65;;;25.30;99.10;;;-141.84;33.92;22629.66;5013122;28;20249;-65
2022/08/12 09:38:00;;;;;;;2.75;1.70;;;25.30;98.90;;;-141.84;34.06;22568.66;5013239;28;20230;-66
2022/08/12 09:40:31;;;;;;;4.43;1.80;;;25.30;99.20;;;-141.84;34.12;22576.78;5012807;28;20664;-66
2022/08/12 09:46:21;;;;;;;3.35;1.80;;;25.40;99.00;;;-141.84;33.74;22631.72;5013023;28;20217;-65
2022/08/12 09:48:54;;;;;;;2.80;1.67;;;25.40;98.80;;;-141.84;33.54;22664.25;5012902;28;20230;-64
2022/08/12 09:51:25;;;;;;;1.85;1.60;;;25.60;98.60;;;-141.84;33.31;22680.53;5013852;28;20204;-63
2022/08/12 09:54:11;;;;;;;3.80;1.65;;;25.60;98.10;;;-141.84;33.11;22731.38;5013104;28;20285;-64
2022/08/12 09:56:59;;;;;;;1.73;1.63;;;25.70;98.00;;;-141.84;33.06;22713.06;5012847;28;20230;-64
2022/08/12 09:59:47;;;;;;;2.65;1.63;;;25.70;97.90;;;-141.84;33.31;22666.28;5012845;28;20230;-63
2022/08/12 10:02:37;;;;;;;3.10;1.50;;;25.70;97.90;;;-141.84;33.63;22633.75;5011937;28;20707;-64
2022/08/12 10:05:20;;;;;;;3.28;1.60;;;25.60;98.10;;;-141.84;33.57;22672.38;5012911;28;20631;-62
2022/08/12 10:07:48;;;;;;;2.97;1.60;;;25.70;98.20;;;-141.84;33.61;22670.34;5012848;28;20305;-60
2022/08/12 10:10:16;;;;;;;2.13;1.80;;;25.70;98.20;;;-141.84;33.01;22711.03;5012809;28;20309;-64
2022/08/12 10:16:02;;;;;;;2.95;1.90;;;25.70;98.00;;;-141.84;33.52;22690.69;5012618;28;20223;-64
2022/08/12 10:18:36;;;;;;;3.13;2.00;;;25.70;98.20;;;-141.84;33.52;22688.66;5012172;28;20191;-65
2022/08/12 10:21:24;;;;;;;2.50;1.75;;;25.70;98.10;;;-141.84;32.96;22776.09;5026667;28;20601;-65
2022/08/12 10:24:07;;;;;;;2.00;1.80;;;25.90;98.00;;;-141.84;33.00;22810.69;5032652;28;20264;-62
2022/08/12 10:29:40;;;;;;;2.25;1.90;;;26.00;97.60;;;-141.84;32.73;22826.97;5032239;28;20226;-63
2022/08/12 10:32:28;;;;;;;2.83;1.70;;;26.10;97.40;;;-141.84;32.50;22794.41;5032166;28;20221;-63
2022/08/12 10:35:17;;;;;;;2.00;1.55;;;26.10;97.30;;;-141.84;32.89;22792.38;5031803;28;20727;-65
2022/08/12 10:37:46;;;;;;;3.40;1.85;;;26.10;97.60;;;-141.84;32.39;22867.63;5031255;28;20316;-65
2022/08/12 10:43:39;;;;;;;2.70;1.42;;;26.20;97.20;;;-141.84;32.07;22835.09;5029735;28;20715;-64
2022/08/12 10:43:42;;;;;;;1.70;1.40;;;26.20;96.70;;;-141.84;32.58;22831.03;5031783;28;20232;-65
2022/08/12 10:46:24;;;;;;;3.70;1.40;;;26.10;97.10;;;-141.84;32.49;22833.06;5032327;28;20225;-64
2022/08/12 10:49:00;;;;;;;2.45;1.40;;;26.20;97.00;;;-141.84;32.52;22835.09;5032244;28;20282;-65
2022/08/12 10:51:50;;;;;;;1.80;1.70;;;26.20;97.00;;;-141.84;32.51;22798.47;5032079;28;20604;-65
2022/08/12 10:54:42;;;;;;;2.05;1.40;;;26.20;97.10;;;-141.84;32.39;22818.81;5031274;28;20290;-65
2022/08/12 10:57:16;;;;;;;3.22;1.38;;;26.20;97.00;;;-141.84;32.11;22831.03;5032458;28;20217;-64
2022/08/12 11:00:06;;;;;;;3.22;1.73;;;26.20;96.60;;;-141.84;32.18;22871.72;5031617;28;20222;-66
2022/08/12 11:02:55;;;;;;;1.40;1.30;;;26.30;96.70;;;-141.84;32.17;22894.06;5031626;28;20226;-65
2022/08/12 11:05:43;;;;;;;1.50;1.40;;;26.30;96.70;;;-141.84;32.34;22910.34;5031779;28;20697;-64
2022/08/12 11:08:32;;;;;;;1.70;1.55;;;26.40;96.70;;;-141.84;32.23;22877.81;5031014;28;20233;-65
2022/08/12 11:11:16;;;;;;;3.42;1.65;;;26.40;96.70;;;-141.84;32.18;22926.63;5031985;28;20226;-65
2022/08/12 11:13:45;;;;;;;2.08;1.88;;;26.50;96.80;;;-141.84;32.53;22916.44;5031126;28;20229;-65
2022/08/12 11:16:18;;;;;;;2.50;1.42;;;26.50;97.10;;;-141.84;31.70;22981.53;5031752;28;20272;-65
2022/08/12 11:18:51;;;;;;;3.33;1.50;;;26.50;96.10;;;-141.84;31.71;22953.06;5031458;28;20299;-63
2022/08/12 11:21:24;;;;;;;2.30;1.50;;;26.60;96.10;;;-141.84;31.37;22963.22;5030984;28;20195;-68
2022/08/12 11:24:11;;;;;;;1.92;1.38;;;26.70;95.80;;;-141.84;31.20;23054.75;4992413;28;20226;-67
2022/08/12 11:27:05;;;;;;;1.75;1.35;;;26.70;95.60;;;-141.84;31.28;23048.66;5012082;28;20332;-64
2022/08/12 11:29:36;;;;;;;2.55;1.60;;;26.80;95.50;;;-141.84;31.34;22987.63;5012972;28;20226;-75
2022/08/12 11:32:24;;;;;;;3.72;1.40;;;26.80;95.70;;;-141.84;31.02;23054.75;5013766;28;20231;-77
2022/08/12 11:34:52;;;;;;;2.47;1.35;;;26.90;95.40;;;-141.84;31.08;23050.69;5013743;28;20309;-76
2022/08/12 11:37:22;;;;;;;1.45;1.35;;;26.90;95.40;;;-141.84;31.11;23079.19;5014537;28;20575;-77
2022/08/12 11:39:54;;;;;;;2.47;1.60;;;26.90;95.50;;;-141.84;31.25;23071.03;5013274;28;20279;-75
2022/08/12 11:42:35;;;;;;;1.92;1.50;;;27.00;95.50;;;-141.84;30.49;23152.41;5014133;28;20213;-75
2022/08/12 11:45:08;;;;;;;2.03;1.38;;;27.10;94.90;;;-141.84;30.59;23168.69;5012588;28;20229;-72
2022/08/12 11:47:37;;;;;;;4.53;1.60;;;27.30;94.80;;;-141.84;30.66;23140.19;5013253;28;20250;-74
2022/08/12 11:50:08;;;;;;;1.73;1.60;;;27.20;94.90;;;-141.84;30.85;23172.75;5015401;28;20230;-74
2022/08/12 11:52:47;;;;;;;1.60;1.50;;;27.30;94.80;;;-141.84;30.71;23191.06;5031660;28;20237;-78
2022/08/12 11:55:35;;;;;;;1.88;1.65;;;27.20;94.90;;;-141.84;30.74;23174.78;5023996;28;20233;-75
2022/08/12 11:58:15;;;;;;;2.35;1.45;;;27.30;95.10;;;-141.84;30.94;23195.13;5015918;28;20222;-77
2022/08/12 12:01:03;;;;;;;1.60;1.50;;;27.40;95.30;;;-141.84;30.45;23245.97;5016847;28;20223;-76
2022/08/12 12:03:51;;;;;;;1.50;1.40;;;27.60;94.90;;;-141.84;30.38;23225.63;5014717;28;20246;-77
2022/08/12 12:06:21;;;;;;;2.08;1.48;;;27.40;94.50;;;-141.84;30.72;23134.09;5015129;28;20708;-78
2022/08/12 12:08:50;;;;;;;2.70;1.38;;;27.40;94.80;;;-141.84;30.43;23205.28;5014031;28;20227;-76
2022/08/12 12:11:22;;;;;;;1.50;1.40;;;27.40;94.50;;;-141.84;30.50;23095.44;5015038;28;20305;-78
2022/08/12 12:13:51;;;;;;;2.75;1.50;;;27.20;94.30;;;-141.84;30.79;23050.69;5012619;28;20230;-74
2022/08/12 12:16:37;;;;;;;2.05;1.60;;;27.10;94.50;;;-141.84;30.67;23046.63;5011488;28;20222;-72
2022/08/12 12:19:09;;;;;;;2.08;1.40;;;27.00;94.30;;;-141.84;30.06;23115.78;5010978;28;20256;-70